sensor_id;sensor_type;location;lat;lon;timestamp;P1;durP1;ratioP1;P2;durP2;ratioP2
7348;SDS011;13010;-33.424;-70.614;2023-02-02T00:00:47;4.63;;;2.27;;
7348;SDS011;13010;-33.424;-70.614;2023-02-02T00:03:36;4.93;;;2.37;;
7348;SDS011;13010;-33.424;-70.614;2023-02-02T00:06:25;4.00;;;2.30;;
7348;SDS011;13010;-33.424;-70.614;2023-02-02T00:09:15;4.70;;;1.80;;
7348;SDS011;13010;-33.424;-70.614;2023-02-02T00:12:05;6.50;;;1.93;;
7348;SDS011;13010;-33.424;-70.614;2023-02-02T00:14:55;5.90;;;1.97;;
7348;SDS011;13010;-33.424;-70.614;2023-02-02T00:17:46;4.40;;;1.53;;
7348;SDS011;13010;-33.424;-70.614;2023-02-02T00:20:35;6.20;;;2.40;;
7348;SDS011;13010;-33.424;-70.614;2023-02-02T00:23:23;5.90;;;1.80;;
7348;SDS011;13010;-33.424;-70.614;2023-02-02T00:26:12;4.60;;;1.67;;
7348;SDS011;13010;-33.424;-70.614;2023-02-02T00:29:01;36.27;;;4.20;;
7348;SDS011;13010;-33.424;-70.614;2023-02-02T00:31:51;10.00;;;2.80;;
7348;SDS011;13010;-33.424;-70.614;2023-02-02T00:34:42;7.07;;;2.10;;
7348;SDS011;13010;-33.424;-70.614;2023-02-02T00:37:30;7.00;;;1.53;;
7348;SDS011;13010;-33.424;-70.614;2023-02-02T00:40:19;8.17;;;2.20;;
7348;SDS011;13010;-33.424;-70.614;2023-02-02T00:43:08;12.40;;;2.50;;
7348;SDS011;13010;-33.424;-70.614;2023-02-02T00:46:00;4.53;;;1.93;;
7348;SDS011;13010;-33.424;-70.614;2023-02-02T00:48:48;15.50;;;3.30;;
7348;SDS011;13010;-33.424;-70.614;2023-02-02T00:51:39;9.03;;;2.33;;
7348;SDS011;13010;-33.424;-70.614;2023-02-02T00:54:28;16.30;;;2.50;;
7348;SDS011;13010;-33.424;-70.614;2023-02-02T00:57:17;4.87;;;1.77;;
7348;SDS011;13010;-33.424;-70.614;2023-02-02T01:00:06;5.00;;;1.90;;
7348;SDS011;13010;-33.424;-70.614;2023-02-02T01:02:58;6.70;;;1.90;;
7348;SDS011;13010;-33.424;-70.614;2023-02-02T01:05:48;12.57;;;2.43;;
7348;SDS011;13010;-33.424;-70.614;2023-02-02T01:08:39;4.43;;;2.07;;
7348;SDS011;13010;-33.424;-70.614;2023-02-02T01:11:28;8.07;;;1.97;;
7348;SDS011;13010;-33.424;-70.614;2023-02-02T01:14:17;5.00;;;2.40;;
7348;SDS011;13010;-33.424;-70.614;2023-02-02T01:17:06;4.30;;;1.90;;
7348;SDS011;13010;-33.424;-70.614;2023-02-02T01:19:54;8.27;;;2.20;;
7348;SDS011;13010;-33.424;-70.614;2023-02-02T01:22:43;9.80;;;2.50;;
7348;SDS011;13010;-33.424;-70.614;2023-02-02T01:25:34;7.50;;;2.50;;
7348;SDS011;13010;-33.424;-70.614;2023-02-02T01:28:23;5.47;;;1.83;;
7348;SDS011;13010;-33.424;-70.614;2023-02-02T01:31:13;5.67;;;2.10;;
7348;SDS011;13010;-33.424;-70.614;2023-02-02T01:34:03;6.60;;;1.40;;
7348;SDS011;13010;-33.424;-70.614;2023-02-02T01:36:51;7.03;;;2.50;;
7348;SDS011;13010;-33.424;-70.614;2023-02-02T01:39:40;7.63;;;2.80;;
7348;SDS011;13010;-33.424;-70.614;2023-02-02T01:42:30;5.53;;;1.60;;
7348;SDS011;13010;-33.424;-70.614;2023-02-02T01:45:20;3.27;;;1.50;;
7348;SDS011;13010;-33.424;-70.614;2023-02-02T01:48:12;7.03;;;1.70;;
7348;SDS011;13010;-33.424;-70.614;2023-02-02T01:51:02;9.43;;;2.53;;
7348;SDS011;13010;-33.424;-70.614;2023-02-02T01:53:55;4.67;;;1.70;;
7348;SDS011;13010;-33.424;-70.614;2023-02-02T01:56:46;5.67;;;1.90;;
7348;SDS011;13010;-33.424;-70.614;2023-02-02T01:59:39;4.70;;;1.90;;
7348;SDS011;13010;-33.424;-70.614;2023-02-02T02:02:30;8.27;;;2.30;;
7348;SDS011;13010;-33.424;-70.614;2023-02-02T02:05:22;10.70;;;2.20;;
7348;SDS011;13010;-33.424;-70.614;2023-02-02T02:08:16;10.53;;;1.83;;
7348;SDS011;13010;-33.424;-70.614;2023-02-02T02:11:07;10.53;;;1.70;;
7348;SDS011;13010;-33.424;-70.614;2023-02-02T02:13:57;5.03;;;1.40;;
7348;SDS011;13010;-33.424;-70.614;2023-02-02T02:17:12;7.50;;;2.23;;
7348;SDS011;13010;-33.424;-70.614;2023-02-02T02:34:17;7.23;;;2.20;;
7348;SDS011;13010;-33.424;-70.614;2023-02-02T02:37:14;3.83;;;1.60;;
7348;SDS011;13010;-33.424;-70.614;2023-02-02T02:40:10;8.30;;;2.10;;
7348;SDS011;13010;-33.424;-70.614;2023-02-02T02:43:06;3.97;;;1.77;;
7348;SDS011;13010;-33.424;-70.614;2023-02-02T02:46:01;5.37;;;1.93;;
7348;SDS011;13010;-33.424;-70.614;2023-02-02T02:48:51;7.20;;;1.73;;
7348;SDS011;13010;-33.424;-70.614;2023-02-02T02:51:46;11.63;;;1.93;;
7348;SDS011;13010;-33.424;-70.614;2023-02-02T02:54:36;9.87;;;2.00;;
7348;SDS011;13010;-33.424;-70.614;2023-02-02T02:57:45;3.00;;;1.13;;
7348;SDS011;13010;-33.424;-70.614;2023-02-02T03:00:46;15.30;;;2.17;;
7348;SDS011;13010;-33.424;-70.614;2023-02-02T03:03:45;12.60;;;1.90;;
7348;SDS011;13010;-33.424;-70.614;2023-02-02T03:06:47;10.80;;;2.00;;
7348;SDS011;13010;-33.424;-70.614;2023-02-02T03:09:39;8.20;;;1.70;;
7348;SDS011;13010;-33.424;-70.614;2023-02-02T03:12:30;6.87;;;2.50;;
7348;SDS011;13010;-33.424;-70.614;2023-02-02T03:15:19;3.20;;;1.53;;
7348;SDS011;13010;-33.424;-70.614;2023-02-02T03:18:08;14.43;;;2.20;;
7348;SDS011;13010;-33.424;-70.614;2023-02-02T03:20:57;7.23;;;1.87;;
7348;SDS011;13010;-33.424;-70.614;2023-02-02T03:23:49;11.03;;;1.80;;
7348;SDS011;13010;-33.424;-70.614;2023-02-02T03:26:38;9.03;;;2.20;;
7348;SDS011;13010;-33.424;-70.614;2023-02-02T03:29:27;7.30;;;1.80;;
7348;SDS011;13010;-33.424;-70.614;2023-02-02T03:32:16;8.50;;;1.40;;
7348;SDS011;13010;-33.424;-70.614;2023-02-02T03:35:05;6.13;;;1.57;;
7348;SDS011;13010;-33.424;-70.614;2023-02-02T03:37:54;9.03;;;2.00;;
7348;SDS011;13010;-33.424;-70.614;2023-02-02T03:40:45;6.23;;;1.77;;
7348;SDS011;13010;-33.424;-70.614;2023-02-02T03:43:34;7.80;;;1.63;;
7348;SDS011;13010;-33.424;-70.614;2023-02-02T03:46:23;4.40;;;1.80;;
7348;SDS011;13010;-33.424;-70.614;2023-02-02T03:49:13;5.03;;;2.00;;
7348;SDS011;13010;-33.424;-70.614;2023-02-02T03:52:02;9.60;;;2.13;;
7348;SDS011;13010;-33.424;-70.614;2023-02-02T03:54:50;4.33;;;1.70;;
7348;SDS011;13010;-33.424;-70.614;2023-02-02T03:57:41;3.43;;;1.23;;
7348;SDS011;13010;-33.424;-70.614;2023-02-02T04:00:30;6.83;;;1.80;;
7348;SDS011;13010;-33.424;-70.614;2023-02-02T04:03:22;15.47;;;2.43;;
7348;SDS011;13010;-33.424;-70.614;2023-02-02T04:06:10;8.03;;;2.00;;
7348;SDS011;13010;-33.424;-70.614;2023-02-02T04:08:59;6.23;;;2.03;;
7348;SDS011;13010;-33.424;-70.614;2023-02-02T04:11:49;16.13;;;2.50;;
7348;SDS011;13010;-33.424;-70.614;2023-02-02T04:14:39;7.63;;;2.50;;
7348;SDS011;13010;-33.424;-70.614;2023-02-02T04:17:28;4.40;;;1.70;;
7348;SDS011;13010;-33.424;-70.614;2023-02-02T04:20:17;9.00;;;2.10;;
7348;SDS011;13010;-33.424;-70.614;2023-02-02T04:23:06;5.23;;;1.70;;
7348;SDS011;13010;-33.424;-70.614;2023-02-02T04:25:55;8.00;;;2.00;;
7348;SDS011;13010;-33.424;-70.614;2023-02-02T04:28:45;3.90;;;1.70;;
7348;SDS011;13010;-33.424;-70.614;2023-02-02T04:31:35;3.50;;;1.47;;
7348;SDS011;13010;-33.424;-70.614;2023-02-02T04:34:24;6.47;;;2.20;;
7348;SDS011;13010;-33.424;-70.614;2023-02-02T04:37:13;8.53;;;2.10;;
7348;SDS011;13010;-33.424;-70.614;2023-02-02T04:40:02;18.33;;;2.00;;
7348;SDS011;13010;-33.424;-70.614;2023-02-02T04:42:51;4.90;;;1.57;;
7348;SDS011;13010;-33.424;-70.614;2023-02-02T04:45:40;6.47;;;2.03;;
7348;SDS011;13010;-33.424;-70.614;2023-02-02T04:48:31;6.50;;;1.33;;
7348;SDS011;13010;-33.424;-70.614;2023-02-02T04:51:20;7.93;;;2.00;;
7348;SDS011;13010;-33.424;-70.614;2023-02-02T04:54:09;6.53;;;2.13;;
7348;SDS011;13010;-33.424;-70.614;2023-02-02T04:56:58;12.60;;;2.07;;
7348;SDS011;13010;-33.424;-70.614;2023-02-02T04:59:46;3.83;;;1.53;;
7348;SDS011;13010;-33.424;-70.614;2023-02-02T05:02:35;9.07;;;1.70;;
7348;SDS011;13010;-33.424;-70.614;2023-02-02T05:05:26;16.37;;;2.47;;
7348;SDS011;13010;-33.424;-70.614;2023-02-02T05:08:15;12.83;;;1.87;;
7348;SDS011;13010;-33.424;-70.614;2023-02-02T05:11:07;5.00;;;1.27;;
7348;SDS011;13010;-33.424;-70.614;2023-02-02T05:13:56;2.97;;;0.90;;
7348;SDS011;13010;-33.424;-70.614;2023-02-02T05:16:45;5.30;;;1.27;;
7348;SDS011;13010;-33.424;-70.614;2023-02-02T05:19:34;9.20;;;1.90;;
7348;SDS011;13010;-33.424;-70.614;2023-02-02T05:22:25;5.23;;;2.40;;
7348;SDS011;13010;-33.424;-70.614;2023-02-02T05:25:14;3.67;;;1.40;;
7348;SDS011;13010;-33.424;-70.614;2023-02-02T05:28:03;6.83;;;1.47;;
7348;SDS011;13010;-33.424;-70.614;2023-02-02T05:30:51;5.33;;;1.13;;
7348;SDS011;13010;-33.424;-70.614;2023-02-02T05:33:41;8.47;;;2.00;;
7348;SDS011;13010;-33.424;-70.614;2023-02-02T05:36:30;6.13;;;2.93;;
7348;SDS011;13010;-33.424;-70.614;2023-02-02T05:39:21;6.80;;;3.40;;
7348;SDS011;13010;-33.424;-70.614;2023-02-02T05:42:10;9.83;;;4.17;;
7348;SDS011;13010;-33.424;-70.614;2023-02-02T05:45:01;7.93;;;3.37;;
7348;SDS011;13010;-33.424;-70.614;2023-02-02T05:47:52;10.33;;;4.60;;
7348;SDS011;13010;-33.424;-70.614;2023-02-02T05:50:41;15.87;;;5.30;;
7348;SDS011;13010;-33.424;-70.614;2023-02-02T05:53:30;15.70;;;7.33;;
7348;SDS011;13010;-33.424;-70.614;2023-02-02T05:56:22;18.00;;;8.30;;
7348;SDS011;13010;-33.424;-70.614;2023-02-02T05:59:11;15.60;;;10.50;;
7348;SDS011;13010;-33.424;-70.614;2023-02-02T06:02:00;21.97;;;13.20;;
7348;SDS011;13010;-33.424;-70.614;2023-02-02T06:04:49;18.20;;;13.10;;
7348;SDS011;13010;-33.424;-70.614;2023-02-02T06:07:38;20.17;;;12.83;;
7348;SDS011;13010;-33.424;-70.614;2023-02-02T06:10:27;21.70;;;11.90;;
7348;SDS011;13010;-33.424;-70.614;2023-02-02T06:13:18;15.67;;;9.37;;
7348;SDS011;13010;-33.424;-70.614;2023-02-02T06:16:07;16.20;;;9.60;;
7348;SDS011;13010;-33.424;-70.614;2023-02-02T06:18:56;27.50;;;11.00;;
7348;SDS011;13010;-33.424;-70.614;2023-02-02T06:21:45;18.43;;;9.43;;
7348;SDS011;13010;-33.424;-70.614;2023-02-02T06:24:34;11.57;;;7.33;;
7348;SDS011;13010;-33.424;-70.614;2023-02-02T06:27:23;11.63;;;8.20;;
7348;SDS011;13010;-33.424;-70.614;2023-02-02T06:30:14;20.83;;;7.00;;
7348;SDS011;13010;-33.424;-70.614;2023-02-02T06:33:03;19.33;;;7.03;;
7348;SDS011;13010;-33.424;-70.614;2023-02-02T06:35:52;15.50;;;7.10;;
7348;SDS011;13010;-33.424;-70.614;2023-02-02T06:38:46;15.30;;;8.63;;
7348;SDS011;13010;-33.424;-70.614;2023-02-02T06:41:36;19.13;;;8.10;;
7348;SDS011;13010;-33.424;-70.614;2023-02-02T06:44:24;18.90;;;6.83;;
7348;SDS011;13010;-33.424;-70.614;2023-02-02T06:47:15;23.93;;;7.30;;
7348;SDS011;13010;-33.424;-70.614;2023-02-02T06:50:04;11.63;;;6.57;;
7348;SDS011;13010;-33.424;-70.614;2023-02-02T06:52:53;12.37;;;6.57;;
7348;SDS011;13010;-33.424;-70.614;2023-02-02T06:55:42;8.50;;;5.80;;
7348;SDS011;13010;-33.424;-70.614;2023-02-02T06:58:38;14.53;;;5.53;;
7348;SDS011;13010;-33.424;-70.614;2023-02-02T07:01:27;15.10;;;6.70;;
7348;SDS011;13010;-33.424;-70.614;2023-02-02T07:04:17;10.00;;;5.27;;
7348;SDS011;13010;-33.424;-70.614;2023-02-02T07:07:07;18.00;;;6.83;;
7348;SDS011;13010;-33.424;-70.614;2023-02-02T07:09:55;10.23;;;6.00;;
7348;SDS011;13010;-33.424;-70.614;2023-02-02T07:12:44;12.43;;;6.10;;
7348;SDS011;13010;-33.424;-70.614;2023-02-02T07:15:33;17.23;;;6.23;;
7348;SDS011;13010;-33.424;-70.614;2023-02-02T07:18:24;11.43;;;6.03;;
7348;SDS011;13010;-33.424;-70.614;2023-02-02T07:21:16;17.93;;;7.13;;
7348;SDS011;13010;-33.424;-70.614;2023-02-02T07:24:06;19.90;;;5.80;;
7348;SDS011;13010;-33.424;-70.614;2023-02-02T07:26:55;8.93;;;5.23;;
7348;SDS011;13010;-33.424;-70.614;2023-02-02T07:29:44;22.93;;;6.13;;
7348;SDS011;13010;-33.424;-70.614;2023-02-02T07:32:32;10.97;;;6.47;;
7348;SDS011;13010;-33.424;-70.614;2023-02-02T07:35:20;13.50;;;6.60;;
7348;SDS011;13010;-33.424;-70.614;2023-02-02T07:38:11;11.80;;;6.43;;
7348;SDS011;13010;-33.424;-70.614;2023-02-02T07:41:00;11.30;;;5.80;;
7348;SDS011;13010;-33.424;-70.614;2023-02-02T07:43:50;9.43;;;6.27;;
7348;SDS011;13010;-33.424;-70.614;2023-02-02T07:46:39;12.33;;;5.70;;
7348;SDS011;13010;-33.424;-70.614;2023-02-02T07:49:28;11.67;;;6.27;;
7348;SDS011;13010;-33.424;-70.614;2023-02-02T07:52:17;16.63;;;7.00;;
7348;SDS011;13010;-33.424;-70.614;2023-02-02T07:55:08;9.60;;;6.30;;
7348;SDS011;13010;-33.424;-70.614;2023-02-02T07:57:57;17.87;;;7.90;;
7348;SDS011;13010;-33.424;-70.614;2023-02-02T08:00:46;9.93;;;6.30;;
7348;SDS011;13010;-33.424;-70.614;2023-02-02T08:03:35;11.63;;;6.60;;
7348;SDS011;13010;-33.424;-70.614;2023-02-02T08:06:24;12.40;;;7.17;;
7348;SDS011;13010;-33.424;-70.614;2023-02-02T08:09:15;13.23;;;7.80;;
7348;SDS011;13010;-33.424;-70.614;2023-02-02T08:12:06;14.50;;;7.50;;
7348;SDS011;13010;-33.424;-70.614;2023-02-02T08:14:55;14.40;;;7.33;;
7348;SDS011;13010;-33.424;-70.614;2023-02-02T08:17:44;16.50;;;8.00;;
7348;SDS011;13010;-33.424;-70.614;2023-02-02T08:20:33;11.47;;;7.67;;
7348;SDS011;13010;-33.424;-70.614;2023-02-02T08:23:23;16.57;;;7.40;;
7348;SDS011;13010;-33.424;-70.614;2023-02-02T08:26:12;17.40;;;8.00;;
7348;SDS011;13010;-33.424;-70.614;2023-02-02T08:29:06;16.87;;;8.70;;
7348;SDS011;13010;-33.424;-70.614;2023-02-02T08:31:55;12.30;;;7.63;;
7348;SDS011;13010;-33.424;-70.614;2023-02-02T08:34:44;12.97;;;7.03;;
7348;SDS011;13010;-33.424;-70.614;2023-02-02T08:37:35;11.77;;;7.57;;
7348;SDS011;13010;-33.424;-70.614;2023-02-02T08:40:24;17.27;;;7.63;;
7348;SDS011;13010;-33.424;-70.614;2023-02-02T08:43:13;21.40;;;8.90;;
7348;SDS011;13010;-33.424;-70.614;2023-02-02T08:46:04;15.53;;;7.83;;
7348;SDS011;13010;-33.424;-70.614;2023-02-02T08:48:54;15.70;;;8.27;;
7348;SDS011;13010;-33.424;-70.614;2023-02-02T08:51:43;14.77;;;8.30;;
7348;SDS011;13010;-33.424;-70.614;2023-02-02T08:54:32;12.27;;;8.00;;
7348;SDS011;13010;-33.424;-70.614;2023-02-02T08:57:21;16.43;;;8.63;;
7348;SDS011;13010;-33.424;-70.614;2023-02-02T09:00:10;11.97;;;7.17;;
7348;SDS011;13010;-33.424;-70.614;2023-02-02T09:03:01;14.90;;;9.43;;
7348;SDS011;13010;-33.424;-70.614;2023-02-02T09:05:50;15.00;;;9.33;;
7348;SDS011;13010;-33.424;-70.614;2023-02-02T09:08:39;12.33;;;8.03;;
7348;SDS011;13010;-33.424;-70.614;2023-02-02T09:11:28;18.40;;;9.10;;
7348;SDS011;13010;-33.424;-70.614;2023-02-02T09:14:17;16.63;;;9.50;;
7348;SDS011;13010;-33.424;-70.614;2023-02-02T09:17:06;12.40;;;8.87;;
7348;SDS011;13010;-33.424;-70.614;2023-02-02T09:19:56;23.37;;;10.40;;
7348;SDS011;13010;-33.424;-70.614;2023-02-02T09:22:45;17.47;;;9.93;;
7348;SDS011;13010;-33.424;-70.614;2023-02-02T09:25:33;18.30;;;11.20;;
7348;SDS011;13010;-33.424;-70.614;2023-02-02T09:28:22;19.67;;;12.00;;
7348;SDS011;13010;-33.424;-70.614;2023-02-02T09:31:11;18.43;;;10.70;;
7348;SDS011;13010;-33.424;-70.614;2023-02-02T09:34:00;19.37;;;10.33;;
7348;SDS011;13010;-33.424;-70.614;2023-02-02T09:36:51;24.47;;;11.50;;
7348;SDS011;13010;-33.424;-70.614;2023-02-02T09:39:41;15.83;;;11.17;;
7348;SDS011;13010;-33.424;-70.614;2023-02-02T09:42:33;17.97;;;12.70;;
7348;SDS011;13010;-33.424;-70.614;2023-02-02T09:45:31;18.23;;;10.63;;
7348;SDS011;13010;-33.424;-70.614;2023-02-02T09:48:25;15.23;;;10.43;;
7348;SDS011;13010;-33.424;-70.614;2023-02-02T09:51:20;21.20;;;12.00;;
7348;SDS011;13010;-33.424;-70.614;2023-02-02T09:54:15;18.87;;;12.90;;
7348;SDS011;13010;-33.424;-70.614;2023-02-02T09:57:09;38.70;;;14.57;;
7348;SDS011;13010;-33.424;-70.614;2023-02-02T10:00:03;18.63;;;13.27;;
7348;SDS011;13010;-33.424;-70.614;2023-02-02T10:03:03;20.37;;;11.67;;
7348;SDS011;13010;-33.424;-70.614;2023-02-02T10:05:54;21.67;;;14.20;;
7348;SDS011;13010;-33.424;-70.614;2023-02-02T10:08:49;21.00;;;12.30;;
7348;SDS011;13010;-33.424;-70.614;2023-02-02T10:11:44;22.00;;;13.63;;
7348;SDS011;13010;-33.424;-70.614;2023-02-02T10:14:39;17.37;;;11.93;;
7348;SDS011;13010;-33.424;-70.614;2023-02-02T10:17:36;34.70;;;14.23;;
7348;SDS011;13010;-33.424;-70.614;2023-02-02T10:20:32;106.33;;;25.57;;
7348;SDS011;13010;-33.424;-70.614;2023-02-02T10:23:28;47.47;;;13.83;;
7348;SDS011;13010;-33.424;-70.614;2023-02-02T10:26:20;36.37;;;14.53;;
7348;SDS011;13010;-33.424;-70.614;2023-02-02T10:29:22;30.73;;;15.10;;
7348;SDS011;13010;-33.424;-70.614;2023-02-02T10:32:20;257.43;;;43.67;;
7348;SDS011;13010;-33.424;-70.614;2023-02-02T10:35:17;25.63;;;14.77;;
7348;SDS011;13010;-33.424;-70.614;2023-02-02T10:38:18;45.27;;;17.97;;
7348;SDS011;13010;-33.424;-70.614;2023-02-02T10:41:19;23.73;;;15.20;;
7348;SDS011;13010;-33.424;-70.614;2023-02-02T10:44:16;24.27;;;14.23;;
7348;SDS011;13010;-33.424;-70.614;2023-02-02T10:47:18;28.00;;;14.07;;
7348;SDS011;13010;-33.424;-70.614;2023-02-02T10:50:16;24.63;;;13.87;;
7348;SDS011;13010;-33.424;-70.614;2023-02-02T10:53:08;25.03;;;13.10;;
7348;SDS011;13010;-33.424;-70.614;2023-02-02T10:56:01;26.60;;;11.67;;
7348;SDS011;13010;-33.424;-70.614;2023-02-02T10:58:56;19.47;;;13.13;;
7348;SDS011;13010;-33.424;-70.614;2023-02-02T11:01:50;20.27;;;11.70;;
7348;SDS011;13010;-33.424;-70.614;2023-02-02T11:04:40;19.40;;;11.03;;
7348;SDS011;13010;-33.424;-70.614;2023-02-02T11:07:45;19.30;;;12.07;;
7348;SDS011;13010;-33.424;-70.614;2023-02-02T11:10:35;19.80;;;12.10;;
7348;SDS011;13010;-33.424;-70.614;2023-02-02T11:13:26;17.80;;;10.70;;
7348;SDS011;13010;-33.424;-70.614;2023-02-02T11:16:21;19.63;;;11.23;;
7348;SDS011;13010;-33.424;-70.614;2023-02-02T11:19:25;14.77;;;10.47;;
7348;SDS011;13010;-33.424;-70.614;2023-02-02T11:22:27;18.53;;;10.40;;
7348;SDS011;13010;-33.424;-70.614;2023-02-02T11:25:24;13.10;;;7.90;;
7348;SDS011;13010;-33.424;-70.614;2023-02-02T11:28:18;23.20;;;8.53;;
7348;SDS011;13010;-33.424;-70.614;2023-02-02T11:31:28;22.53;;;7.13;;
7348;SDS011;13010;-33.424;-70.614;2023-02-02T11:34:23;11.93;;;5.77;;
7348;SDS011;13010;-33.424;-70.614;2023-02-02T11:37:13;10.63;;;5.70;;
7348;SDS011;13010;-33.424;-70.614;2023-02-02T11:40:17;10.47;;;6.17;;
7348;SDS011;13010;-33.424;-70.614;2023-02-02T11:43:16;9.43;;;4.97;;
7348;SDS011;13010;-33.424;-70.614;2023-02-02T11:46:12;7.63;;;4.10;;
7348;SDS011;13010;-33.424;-70.614;2023-02-02T11:49:06;13.20;;;6.30;;
7348;SDS011;13010;-33.424;-70.614;2023-02-02T11:52:05;9.23;;;2.53;;
7348;SDS011;13010;-33.424;-70.614;2023-02-02T11:55:01;13.93;;;3.27;;
7348;SDS011;13010;-33.424;-70.614;2023-02-02T11:58:09;8.70;;;2.30;;
7348;SDS011;13010;-33.424;-70.614;2023-02-02T12:01:09;6.30;;;2.30;;
7348;SDS011;13010;-33.424;-70.614;2023-02-02T12:04:20;9.03;;;2.10;;
7348;SDS011;13010;-33.424;-70.614;2023-02-02T12:07:21;6.47;;;1.83;;
7348;SDS011;13010;-33.424;-70.614;2023-02-02T12:10:15;14.00;;;1.57;;
7348;SDS011;13010;-33.424;-70.614;2023-02-02T12:13:07;7.63;;;1.77;;
7348;SDS011;13010;-33.424;-70.614;2023-02-02T12:16:04;5.60;;;1.67;;
7348;SDS011;13010;-33.424;-70.614;2023-02-02T12:19:27;13.60;;;3.50;;
7348;SDS011;13010;-33.424;-70.614;2023-02-02T12:22:37;4.17;;;1.70;;
7348;SDS011;13010;-33.424;-70.614;2023-02-02T12:25:39;5.20;;;1.30;;
7348;SDS011;13010;-33.424;-70.614;2023-02-02T12:28:46;12.10;;;2.77;;
7348;SDS011;13010;-33.424;-70.614;2023-02-02T12:31:45;9.33;;;1.63;;
7348;SDS011;13010;-33.424;-70.614;2023-02-02T12:34:50;4.10;;;1.60;;
7348;SDS011;13010;-33.424;-70.614;2023-02-02T12:37:52;6.40;;;1.73;;
7348;SDS011;13010;-33.424;-70.614;2023-02-02T12:41:07;5.77;;;1.93;;
7348;SDS011;13010;-33.424;-70.614;2023-02-02T12:44:08;8.67;;;3.03;;
7348;SDS011;13010;-33.424;-70.614;2023-02-02T12:47:07;5.80;;;1.67;;
7348;SDS011;13010;-33.424;-70.614;2023-02-02T12:50:09;6.73;;;1.53;;
7348;SDS011;13010;-33.424;-70.614;2023-02-02T12:53:18;18.80;;;3.30;;
7348;SDS011;13010;-33.424;-70.614;2023-02-02T12:56:19;6.67;;;2.10;;
7348;SDS011;13010;-33.424;-70.614;2023-02-02T12:59:15;10.23;;;2.07;;
7348;SDS011;13010;-33.424;-70.614;2023-02-02T13:02:15;11.30;;;2.73;;
7348;SDS011;13010;-33.424;-70.614;2023-02-02T13:05:20;5.60;;;2.97;;
7348;SDS011;13010;-33.424;-70.614;2023-02-02T13:08:22;9.23;;;1.73;;
7348;SDS011;13010;-33.424;-70.614;2023-02-02T13:11:16;4.30;;;1.80;;
7348;SDS011;13010;-33.424;-70.614;2023-02-02T13:14:18;4.17;;;1.70;;
7348;SDS011;13010;-33.424;-70.614;2023-02-02T13:17:12;5.40;;;1.90;;
7348;SDS011;13010;-33.424;-70.614;2023-02-02T13:20:05;5.83;;;2.23;;
7348;SDS011;13010;-33.424;-70.614;2023-02-02T13:23:04;11.27;;;2.27;;
7348;SDS011;13010;-33.424;-70.614;2023-02-02T13:26:00;7.67;;;4.07;;
7348;SDS011;13010;-33.424;-70.614;2023-02-02T13:29:00;4.80;;;2.27;;
7348;SDS011;13010;-33.424;-70.614;2023-02-02T13:31:55;5.60;;;1.47;;
7348;SDS011;13010;-33.424;-70.614;2023-02-02T13:34:49;5.27;;;1.87;;
7348;SDS011;13010;-33.424;-70.614;2023-02-02T13:37:41;6.60;;;1.83;;
7348;SDS011;13010;-33.424;-70.614;2023-02-02T13:40:34;3.67;;;1.50;;
7348;SDS011;13010;-33.424;-70.614;2023-02-02T13:43:29;3.00;;;1.30;;
7348;SDS011;13010;-33.424;-70.614;2023-02-02T13:46:26;7.10;;;2.07;;
7348;SDS011;13010;-33.424;-70.614;2023-02-02T13:49:22;5.40;;;1.50;;
7348;SDS011;13010;-33.424;-70.614;2023-02-02T13:52:23;4.70;;;2.13;;
7348;SDS011;13010;-33.424;-70.614;2023-02-02T13:55:38;15.17;;;2.10;;
7348;SDS011;13010;-33.424;-70.614;2023-02-02T13:58:52;3.87;;;1.30;;
7348;SDS011;13010;-33.424;-70.614;2023-02-02T14:01:51;5.73;;;1.63;;
7348;SDS011;13010;-33.424;-70.614;2023-02-02T14:04:43;3.63;;;1.37;;
7348;SDS011;13010;-33.424;-70.614;2023-02-02T14:07:41;4.63;;;1.50;;
7348;SDS011;13010;-33.424;-70.614;2023-02-02T14:10:33;5.43;;;1.50;;
7348;SDS011;13010;-33.424;-70.614;2023-02-02T14:13:24;8.20;;;2.33;;
7348;SDS011;13010;-33.424;-70.614;2023-02-02T14:16:49;20.07;;;3.47;;
7348;SDS011;13010;-33.424;-70.614;2023-02-02T14:19:48;12.80;;;1.70;;
7348;SDS011;13010;-33.424;-70.614;2023-02-02T14:22:40;6.50;;;2.40;;
7348;SDS011;13010;-33.424;-70.614;2023-02-02T14:28:43;3.50;;;1.60;;
7348;SDS011;13010;-33.424;-70.614;2023-02-02T14:31:41;6.37;;;2.23;;
7348;SDS011;13010;-33.424;-70.614;2023-02-02T14:34:42;4.63;;;1.70;;
7348;SDS011;13010;-33.424;-70.614;2023-02-02T14:37:41;6.50;;;2.40;;
7348;SDS011;13010;-33.424;-70.614;2023-02-02T14:40:45;4.47;;;1.53;;
7348;SDS011;13010;-33.424;-70.614;2023-02-02T14:43:40;6.43;;;1.80;;
7348;SDS011;13010;-33.424;-70.614;2023-02-02T14:46:37;8.30;;;1.63;;
7348;SDS011;13010;-33.424;-70.614;2023-02-02T14:49:33;6.23;;;1.70;;
7348;SDS011;13010;-33.424;-70.614;2023-02-02T14:52:23;10.20;;;1.67;;
7348;SDS011;13010;-33.424;-70.614;2023-02-02T14:55:16;9.23;;;2.90;;
7348;SDS011;13010;-33.424;-70.614;2023-02-02T14:58:06;4.33;;;1.40;;
7348;SDS011;13010;-33.424;-70.614;2023-02-02T15:01:03;10.10;;;2.63;;
7348;SDS011;13010;-33.424;-70.614;2023-02-02T15:04:16;8.93;;;1.97;;
7348;SDS011;13010;-33.424;-70.614;2023-02-02T15:13:45;4.43;;;1.70;;
7348;SDS011;13010;-33.424;-70.614;2023-02-02T15:16:40;16.17;;;3.03;;
7348;SDS011;13010;-33.424;-70.614;2023-02-02T15:19:32;4.17;;;1.33;;
7348;SDS011;13010;-33.424;-70.614;2023-02-02T15:22:25;7.93;;;2.20;;
7348;SDS011;13010;-33.424;-70.614;2023-02-02T15:25:22;3.87;;;2.10;;
7348;SDS011;13010;-33.424;-70.614;2023-02-02T15:28:16;3.20;;;1.20;;
7348;SDS011;13010;-33.424;-70.614;2023-02-02T15:31:13;3.90;;;1.20;;
7348;SDS011;13010;-33.424;-70.614;2023-02-02T15:34:13;10.43;;;2.63;;
7348;SDS011;13010;-33.424;-70.614;2023-02-02T15:37:05;15.03;;;4.20;;
7348;SDS011;13010;-33.424;-70.614;2023-02-02T15:40:00;5.10;;;1.70;;
7348;SDS011;13010;-33.424;-70.614;2023-02-02T15:42:53;10.30;;;2.10;;
7348;SDS011;13010;-33.424;-70.614;2023-02-02T15:45:48;14.70;;;2.20;;
7348;SDS011;13010;-33.424;-70.614;2023-02-02T15:48:40;3.07;;;1.00;;
7348;SDS011;13010;-33.424;-70.614;2023-02-02T15:51:29;3.40;;;1.30;;
7348;SDS011;13010;-33.424;-70.614;2023-02-02T15:54:20;8.67;;;2.30;;
7348;SDS011;13010;-33.424;-70.614;2023-02-02T15:57:20;8.33;;;1.50;;
7348;SDS011;13010;-33.424;-70.614;2023-02-02T16:00:26;10.73;;;2.10;;
7348;SDS011;13010;-33.424;-70.614;2023-02-02T16:03:17;4.80;;;1.20;;
7348;SDS011;13010;-33.424;-70.614;2023-02-02T16:06:09;5.63;;;1.43;;
7348;SDS011;13010;-33.424;-70.614;2023-02-02T16:09:01;4.00;;;1.60;;
7348;SDS011;13010;-33.424;-70.614;2023-02-02T16:11:50;5.70;;;1.50;;
7348;SDS011;13010;-33.424;-70.614;2023-02-02T16:14:39;5.23;;;2.00;;
7348;SDS011;13010;-33.424;-70.614;2023-02-02T16:17:32;8.80;;;1.57;;
7348;SDS011;13010;-33.424;-70.614;2023-02-02T16:20:21;7.80;;;2.00;;
7348;SDS011;13010;-33.424;-70.614;2023-02-02T16:23:11;4.20;;;1.67;;
7348;SDS011;13010;-33.424;-70.614;2023-02-02T16:26:10;5.53;;;1.70;;
7348;SDS011;13010;-33.424;-70.614;2023-02-02T16:29:03;10.70;;;6.37;;
7348;SDS011;13010;-33.424;-70.614;2023-02-02T16:31:52;7.10;;;2.37;;
7348;SDS011;13010;-33.424;-70.614;2023-02-02T16:34:58;6.53;;;1.90;;
7348;SDS011;13010;-33.424;-70.614;2023-02-02T16:37:49;6.53;;;2.07;;
7348;SDS011;13010;-33.424;-70.614;2023-02-02T16:40:38;7.13;;;2.20;;
7348;SDS011;13010;-33.424;-70.614;2023-02-02T16:43:28;7.27;;;1.70;;
7348;SDS011;13010;-33.424;-70.614;2023-02-02T16:46:31;4.87;;;2.00;;
7348;SDS011;13010;-33.424;-70.614;2023-02-02T16:49:28;6.50;;;1.60;;
7348;SDS011;13010;-33.424;-70.614;2023-02-02T16:52:19;12.57;;;2.07;;
7348;SDS011;13010;-33.424;-70.614;2023-02-02T16:55:08;70.43;;;9.57;;
7348;SDS011;13010;-33.424;-70.614;2023-02-02T16:58:02;21.53;;;3.43;;
7348;SDS011;13010;-33.424;-70.614;2023-02-02T17:00:54;6.50;;;1.90;;
7348;SDS011;13010;-33.424;-70.614;2023-02-02T17:03:47;4.30;;;1.50;;
7348;SDS011;13010;-33.424;-70.614;2023-02-02T17:06:41;3.60;;;1.60;;